createdAt,value
2018-09-27T00:00:01.852Z,102326.81
2018-09-27T00:02:32.689Z,102325.09
2018-09-27T00:05:02.816Z,102335.89
2018-09-27T00:07:33.228Z,102336.44
2018-09-27T00:10:03.743Z,102331.06
2018-09-27T00:12:34.570Z,102323.03
2018-09-27T00:15:04.743Z,102321.58
2018-09-27T00:17:34.850Z,102325.16
2018-09-27T00:20:06.814Z,102316.17
2018-09-27T00:22:37.111Z,102317.52
2018-09-27T00:25:07.313Z,102326.44
2018-09-27T00:27:37.280Z,102321.03
2018-09-27T00:30:08.128Z,102318.34
2018-09-27T00:32:38.836Z,102321.48
2018-09-27T00:35:08.674Z,102314.25
2018-09-27T00:37:39.342Z,102310.12
2018-09-27T00:40:09.456Z,102321.34
2018-09-27T00:42:40.315Z,102320.42
2018-09-27T00:45:10.430Z,102318.13
2018-09-27T00:47:40.281Z,102314.95
2018-09-27T00:50:11.990Z,102317.08
2018-09-27T00:52:42.930Z,102315.73
2018-09-27T00:55:12.992Z,102323.30
2018-09-27T00:57:43.649Z,102317.02
2018-09-27T01:00:14.483Z,102312.96
2018-09-27T01:02:45.036Z,102313.33
2018-09-27T01:05:15.270Z,102317.38
2018-09-27T01:07:46.346Z,102320.09
2018-09-27T01:10:17.483Z,102319.11
2018-09-27T01:12:49.184Z,102314.98
2018-09-27T01:15:21.054Z,102308.73
2018-09-27T01:17:51.541Z,102311.87
2018-09-27T01:20:23.210Z,102306.03
2018-09-27T01:22:54.650Z,102300.05
2018-09-27T01:25:24.612Z,102302.34
2018-09-27T01:27:55.480Z,102308.63
2018-09-27T01:30:25.917Z,102301.36
2018-09-27T01:32:57.130Z,102307.58
2018-09-27T01:35:27.658Z,102304.54
2018-09-27T01:37:58.621Z,102300.12
2018-09-27T01:40:28.628Z,102298.77
2018-09-27T01:42:58.956Z,102293.36
2018-09-27T01:45:29.455Z,102293.77
2018-09-27T01:48:02.270Z,102299.06
2018-09-27T01:50:32.527Z,102297.30
2018-09-27T01:53:03.729Z,102300.41
2018-09-27T01:55:34.571Z,102304.47
2018-09-27T01:58:04.712Z,102303.92
2018-09-27T02:00:35.107Z,102309.77
2018-09-27T02:03:07.232Z,102310.17
2018-09-27T02:05:37.513Z,102314.81
2018-09-27T02:08:07.607Z,102309.33
2018-09-27T02:10:37.828Z,102302.58
2018-09-27T02:13:07.971Z,102306.30
2018-09-27T02:15:38.322Z,102302.14
2018-09-27T02:18:08.340Z,102300.81
2018-09-27T02:20:38.523Z,102303.92
2018-09-27T02:23:08.625Z,102303.02
2018-09-27T02:25:38.663Z,102300.31
2018-09-27T02:28:09.751Z,102300.34
2018-09-27T02:30:40.068Z,102299.00
2018-09-27T02:33:11.063Z,102299.77
2018-09-27T02:35:42.036Z,102305.34
2018-09-27T02:38:13.461Z,102294.91
2018-09-27T02:40:44.025Z,102288.14
2018-09-27T02:43:15.260Z,102296.25
2018-09-27T02:45:45.298Z,102307.17
2018-09-27T02:48:16.895Z,102302.17
2018-09-27T02:50:47.910Z,102304.94
2018-09-27T02:53:18.304Z,102296.29
2018-09-27T02:55:48.977Z,102298.69
2018-09-27T02:58:19.845Z,102297.23
2018-09-27T03:00:49.909Z,102300.41
2018-09-27T03:03:21.001Z,102295.01
2018-09-27T03:05:52.109Z,102295.48
2018-09-27T03:08:22.491Z,102303.12
2018-09-27T03:10:53.018Z,102298.59
2018-09-27T03:13:23.224Z,102296.77
2018-09-27T03:15:54.454Z,102300.48
2018-09-27T03:18:25.359Z,102290.41
2018-09-27T03:20:56.738Z,102292.31
2018-09-27T03:23:28.166Z,102292.71
2018-09-27T03:25:59.429Z,102286.42
2018-09-27T03:28:30.405Z,102290.84
2018-09-27T03:31:00.998Z,102287.30
2018-09-27T03:33:31.467Z,102291.36
2018-09-27T03:36:02.617Z,102290.95
2018-09-27T03:38:33.583Z,102289.06
2018-09-27T03:41:04.507Z,102289.06
2018-09-27T03:43:35.201Z,102287.30
2018-09-27T03:46:06.245Z,102282.84
2018-09-27T03:48:37.571Z,102285.55
2018-09-27T03:51:08.426Z,102286.83
2018-09-27T03:53:39.365Z,102290.00
2018-09-27T03:56:12.335Z,102295.81
2018-09-27T03:58:44.782Z,102296.73
2018-09-27T04:01:17.421Z,102292.71
2018-09-27T04:03:48.498Z,102279.73
2018-09-27T04:06:19.488Z,102279.27
2018-09-27T04:08:51.546Z,102277.84
2018-09-27T04:11:23.122Z,102271.45
2018-09-27T04:13:55.276Z,102266.92
2018-09-27T04:16:25.414Z,102269.70
2018-09-27T04:18:56.302Z,102270.50
2018-09-27T04:21:27.400Z,102265.97
2018-09-27T04:23:58.471Z,102266.92
2018-09-27T04:26:28.650Z,102273.28
2018-09-27T04:28:58.644Z,102275.44
2018-09-27T04:31:29.991Z,102271.05
2018-09-27T04:34:01.076Z,102278.61
2018-09-27T04:36:31.965Z,102274.92
2018-09-27T04:39:03.067Z,102283.03
2018-09-27T04:41:33.899Z,102287.49
2018-09-27T04:44:04.716Z,102282.89
2018-09-27T04:46:35.627Z,102284.90
2018-09-27T04:49:06.888Z,102284.31
2018-09-27T04:51:37.846Z,102283.03
2018-09-27T04:54:08.486Z,102287.27
2018-09-27T04:56:40.872Z,102280.91
2018-09-27T04:59:12.664Z,102284.90
2018-09-27T05:01:43.663Z,102281.72
2018-09-27T05:04:13.870Z,102283.95
2018-09-27T05:06:45.271Z,102293.27
2018-09-27T05:09:16.370Z,102293.71
2018-09-27T05:11:46.522Z,102291.55
2018-09-27T05:15:47.724Z,102293.71
2018-09-27T05:18:18.824Z,102290.27
2018-09-27T05:20:49.899Z,102284.39
2018-09-27T05:23:20.066Z,102277.63
2018-09-27T05:25:50.258Z,102282.09
2018-09-27T05:28:21.184Z,102289.83
2018-09-27T05:30:52.155Z,102295.06
2018-09-27T05:33:22.309Z,102294.00
2018-09-27T05:35:52.712Z,102295.06
2018-09-27T05:38:23.916Z,102292.80
2018-09-27T05:40:55.265Z,102289.07
2018-09-27T05:43:25.900Z,102289.91
2018-09-27T05:45:57.056Z,102291.59
2018-09-27T05:48:27.548Z,102287.55
2018-09-27T05:50:58.946Z,102296.05
2018-09-27T05:53:30.221Z,102295.47
2018-09-27T05:56:01.493Z,102293.23
2018-09-27T05:58:31.745Z,102290.13
2018-09-27T06:01:01.974Z,102289.11
2018-09-27T06:03:31.896Z,102292.11
2018-09-27T06:06:03.115Z,102285.78
2018-09-27T06:08:33.148Z,102289.11
2018-09-27T06:11:05.398Z,102296.90
2018-09-27T06:13:35.876Z,102298.40
2018-09-27T06:16:07.325Z,102297.05
2018-09-27T06:18:38.892Z,102302.34
2018-09-27T06:21:09.727Z,102300.81
2018-09-27T06:23:40.758Z,102297.11
2018-09-27T06:26:14.143Z,102304.64
2018-09-27T06:28:45.189Z,102307.64
2018-09-27T06:31:15.042Z,102302.04
2018-09-27T06:33:44.889Z,102305.91
2018-09-27T06:36:16.017Z,102301.85
2018-09-27T06:38:47.098Z,102307.84
2018-09-27T06:41:17.867Z,102315.37
2018-09-27T06:43:48.438Z,102315.59
2018-09-27T06:46:17.479Z,102316.17
2018-09-27T06:48:47.705Z,102317.96
2018-09-27T06:51:16.395Z,102325.53
2018-09-27T06:53:46.256Z,102328.23
2018-09-27T06:56:15.973Z,102330.66
2018-09-27T06:58:45.357Z,102330.83
2018-09-27T07:01:14.651Z,102330.31
2018-09-27T07:03:44.819Z,102336.16
2018-09-27T07:06:13.972Z,102326.25
2018-09-27T07:08:44.871Z,102320.50
2018-09-27T07:11:15.765Z,102323.56
2018-09-27T07:13:45.832Z,102322.09
2018-09-27T07:16:16.287Z,102317.91
2018-09-27T07:18:48.025Z,102321.97
2018-09-27T07:21:18.072Z,102319.95
2018-09-27T07:23:48.272Z,102330.39
2018-09-27T07:26:18.805Z,102330.74
2018-09-27T07:28:48.935Z,102326.56
2018-09-27T07:31:18.865Z,102333.33
2018-09-27T07:33:48.978Z,102331.37
2018-09-27T07:36:18.976Z,102326.20
2018-09-27T07:38:48.471Z,102330.14
2018-09-27T07:41:18.474Z,102334.60
2018-09-27T07:43:48.273Z,102335.91
2018-09-27T07:46:18.344Z,102332.57
2018-09-27T07:48:47.996Z,102330.21
2018-09-27T07:51:18.200Z,102331.19
2018-09-27T07:53:47.881Z,102331.84
2018-09-27T07:56:17.771Z,102335.16
2018-09-27T07:58:47.942Z,102332.41
2018-09-27T08:01:17.613Z,102337.26
2018-09-27T08:03:48.453Z,102333.06
2018-09-27T08:06:18.977Z,102324.84
2018-09-27T08:08:49.398Z,102329.19
2018-09-27T08:11:19.675Z,102321.56
2018-09-27T08:13:49.779Z,102312.42
2018-09-27T08:16:19.840Z,102309.23
2018-09-27T08:18:51.165Z,102300.53
2018-09-27T08:21:21.130Z,102305.58
2018-09-27T08:23:51.017Z,102299.80
2018-09-27T08:26:19.666Z,102310.61
2018-09-27T08:28:49.732Z,102299.09
2018-09-27T08:31:19.965Z,102296.16
2018-09-27T08:33:50.016Z,102297.33
2018-09-27T08:36:20.037Z,102297.32
2018-09-27T08:38:50.801Z,102291.00
2018-09-27T08:41:21.532Z,102288.79
2018-09-27T08:43:51.570Z,102290.50
2018-09-27T08:46:21.568Z,102287.46
2018-09-27T08:48:51.962Z,102281.14
2018-09-27T08:51:22.110Z,102283.34
2018-09-27T08:53:52.740Z,102278.13
2018-09-27T08:56:22.823Z,102276.17
2018-09-27T08:58:53.902Z,102279.22
2018-09-27T09:01:23.877Z,102274.58
2018-09-27T09:03:53.961Z,102269.86
2018-09-27T09:06:24.129Z,102270.39
2018-09-27T09:08:53.967Z,102271.97
2018-09-27T09:11:24.035Z,102273.45
2018-09-27T09:13:54.309Z,102263.45
2018-09-27T09:16:23.868Z,102273.89
2018-09-27T09:18:53.937Z,102265.00
2018-09-27T09:21:23.948Z,102256.56
2018-09-27T09:23:54.066Z,102259.95
2018-09-27T09:26:24.163Z,102254.13
2018-09-27T09:28:53.212Z,102247.28
2018-09-27T09:31:22.538Z,102253.02
2018-09-27T09:33:52.417Z,102247.27
2018-09-27T09:36:22.675Z,102248.18
2018-09-27T09:38:52.603Z,102253.17
2018-09-27T09:41:22.993Z,102247.23
2018-09-27T09:43:52.825Z,102241.98
2018-09-27T09:46:22.962Z,102244.27
2018-09-27T09:48:53.848Z,102239.25
2018-09-27T09:51:24.466Z,102239.13
2018-09-27T09:53:54.248Z,102232.67
2018-09-27T09:56:24.114Z,102232.63
2018-09-27T09:58:53.883Z,102236.33
2018-09-27T10:01:23.532Z,102231.77
2018-09-27T10:03:52.690Z,102229.81
2018-09-27T10:06:22.339Z,102228.03
2018-09-27T10:08:52.023Z,102225.81
2018-09-27T10:11:21.759Z,102224.89
2018-09-27T10:13:51.574Z,102212.09
2018-09-27T10:16:21.337Z,102214.12
2018-09-27T10:18:51.021Z,102208.39
2018-09-27T10:21:21.060Z,102212.98
2018-09-27T10:23:50.874Z,102208.45
2018-09-27T10:26:20.994Z,102217.59
2018-09-27T10:28:51.474Z,102213.57
2018-09-27T10:31:21.461Z,102205.00
2018-09-27T10:33:51.495Z,102198.34
2018-09-27T10:36:21.357Z,102187.80
2018-09-27T10:38:51.363Z,102193.56
2018-09-27T10:41:21.360Z,102197.87
2018-09-27T10:43:51.113Z,102187.73
2018-09-27T10:46:20.927Z,102188.83
2018-09-27T10:48:50.830Z,102192.47
2018-09-27T10:51:20.085Z,102181.05
2018-09-27T10:53:50.900Z,102175.30
2018-09-27T10:56:20.864Z,102177.25
2018-09-27T10:58:50.763Z,102178.81
2018-09-27T11:01:20.720Z,102171.36
2018-09-27T11:03:50.780Z,102162.63
2018-09-27T11:06:20.625Z,102175.90
2018-09-27T11:08:50.311Z,102179.88
2018-09-27T11:11:20.342Z,102172.72
2018-09-27T11:13:50.480Z,102160.89
2018-09-27T11:16:20.941Z,102161.30
2018-09-27T11:18:51.753Z,102167.16
2018-09-27T11:21:21.716Z,102158.06
2018-09-27T11:23:51.529Z,102159.37
2018-09-27T11:26:21.639Z,102153.69
2018-09-27T11:28:56.246Z,102146.11
2018-09-27T11:31:31.774Z,102158.87
2018-09-27T11:34:01.879Z,102147.84
2018-09-27T11:36:32.200Z,102142.23
2018-09-27T11:39:01.673Z,102135.58
2018-09-27T11:41:33.323Z,102132.22
2018-09-27T11:44:03.534Z,102124.83
2018-09-27T11:46:33.112Z,102131.92
2018-09-27T11:49:03.248Z,102124.47
2018-09-27T11:51:34.019Z,102119.17
2018-09-27T11:54:04.135Z,102117.02
2018-09-27T11:56:33.411Z,102115.03
2018-09-27T11:59:03.679Z,102119.59
2018-09-27T12:01:34.342Z,102107.83
2018-09-27T12:04:03.859Z,102111.72
2018-09-27T12:06:34.011Z,102109.23
2018-09-27T12:09:05.777Z,102104.43
2018-09-27T12:11:35.795Z,102099.91
2018-09-27T12:14:06.706Z,102098.75
2018-09-27T12:16:36.856Z,102093.98
2018-09-27T12:19:07.388Z,102084.41
2018-09-27T12:21:37.390Z,102089.80
2018-09-27T12:24:07.452Z,102080.97
2018-09-27T12:26:37.392Z,102075.01
2018-09-27T12:29:07.731Z,102081.52
2018-09-27T12:31:38.296Z,102075.01
2018-09-27T12:34:09.255Z,102071.61
2018-09-27T12:36:38.852Z,102068.22
2018-09-27T12:39:11.062Z,102070.03
2018-09-27T12:41:41.049Z,102063.63
2018-09-27T12:44:11.240Z,102058.48
2018-09-27T12:46:41.174Z,102063.75
2018-09-27T12:49:11.079Z,102059.14
2018-09-27T12:51:41.139Z,102056.33
2018-09-27T12:54:11.651Z,102047.61
2018-09-27T12:56:42.683Z,102038.77
2018-09-27T12:59:12.852Z,102039.48
2018-09-27T13:01:43.113Z,102043.30
2018-09-27T13:04:12.858Z,102037.95
2018-09-27T13:06:42.817Z,102034.44
2018-09-27T13:09:12.924Z,102020.89
2018-09-27T13:11:44.183Z,102015.25
2018-09-27T13:14:14.867Z,102011.81
2018-09-27T13:16:45.416Z,102007.88
2018-09-27T13:19:15.471Z,102003.70
2018-09-27T13:21:48.237Z,101997.77
2018-09-27T13:24:18.111Z,101996.00
2018-09-27T13:26:47.343Z,101984.48
2018-09-27T13:29:18.035Z,101980.97
2018-09-27T13:31:47.558Z,101977.33
2018-09-27T13:34:17.128Z,101967.39
2018-09-27T13:36:46.667Z,101967.77
2018-09-27T13:39:16.519Z,101971.95
2018-09-27T13:41:47.238Z,101959.19
2018-09-27T13:44:16.294Z,101961.14
2018-09-27T13:46:46.346Z,101942.23
2018-09-27T13:49:16.868Z,101944.09
2018-09-27T13:51:46.531Z,101945.73
2018-09-27T13:54:16.345Z,101937.88
2018-09-27T13:56:46.752Z,101927.81
2018-09-27T13:59:16.323Z,101931.42
2018-09-27T14:01:46.438Z,101928.56
2018-09-27T14:04:15.923Z,101925.83
2018-09-27T14:06:45.889Z,101912.41
2018-09-27T14:09:16.213Z,101912.00
2018-09-27T14:11:45.996Z,101910.27
2018-09-27T14:14:15.529Z,101904.05
2018-09-27T14:16:46.704Z,101897.81
2018-09-27T14:19:18.521Z,101892.06
2018-09-27T14:21:47.717Z,101892.19
2018-09-27T14:24:18.561Z,101889.17
2018-09-27T14:26:49.695Z,101881.09
2018-09-27T14:29:19.889Z,101881.66
2018-09-27T14:31:49.222Z,101880.69
2018-09-27T14:34:18.920Z,101871.63
2018-09-27T14:36:48.453Z,101869.11
2018-09-27T14:39:17.746Z,101859.64
2018-09-27T14:41:47.536Z,101855.29
2018-09-27T14:44:17.659Z,101852.27
2018-09-27T14:46:47.124Z,101844.36
2018-09-27T14:49:16.513Z,101846.81
2018-09-27T14:51:45.405Z,101840.60
2018-09-27T14:54:15.837Z,101842.34
2018-09-27T14:56:45.661Z,101838.99
2018-09-27T14:59:15.612Z,101832.41
2018-09-27T15:01:45.062Z,101825.17
2018-09-27T15:04:14.582Z,101823.66
2018-09-27T15:06:44.085Z,101819.55
2018-09-27T15:09:13.922Z,101819.47
2018-09-27T15:11:43.824Z,101819.68
2018-09-27T15:14:13.201Z,101811.83
2018-09-27T15:16:42.625Z,101815.09
2018-09-27T15:19:12.020Z,101812.32
2018-09-27T15:21:41.883Z,101804.62
2018-09-27T15:24:12.453Z,101803.72
2018-09-27T15:26:44.235Z,101798.02
2018-09-27T15:29:14.757Z,101795.00
2018-09-27T15:31:44.231Z,101794.75
2018-09-27T15:34:14.282Z,101792.31
2018-09-27T15:36:43.428Z,101783.67
2018-09-27T15:39:12.966Z,101781.52
2018-09-27T15:41:42.699Z,101786.70
2018-09-27T15:44:12.301Z,101780.98
2018-09-27T15:46:41.927Z,101775.63
2018-09-27T15:49:11.827Z,101774.38
2018-09-27T15:51:40.841Z,101775.38
2018-09-27T15:54:09.782Z,101771.20
2018-09-27T15:56:39.363Z,101762.77
2018-09-27T15:59:08.931Z,101759.63
2018-09-27T16:01:38.381Z,101754.41
2018-09-27T16:04:07.644Z,101751.52
2018-09-27T16:06:37.988Z,101757.69
2018-09-27T16:09:08.931Z,101749.22
2018-09-27T16:11:38.026Z,101750.79
2018-09-27T16:14:08.219Z,101754.51
2018-09-27T16:16:38.321Z,101750.75
2018-09-27T16:19:07.270Z,101747.70
2018-09-27T16:21:36.201Z,101747.94
2018-09-27T16:24:06.446Z,101744.44
2018-09-27T16:26:37.396Z,101738.06
2018-09-27T16:29:07.547Z,101736.70
2018-09-27T16:31:38.116Z,101736.99
2018-09-27T16:34:07.682Z,101734.09
2018-09-27T16:36:38.984Z,101737.56
2018-09-27T16:39:12.474Z,101738.27
2018-09-27T16:41:43.354Z,101729.41
2018-09-27T16:44:14.863Z,101723.18
2018-09-27T16:46:45.006Z,101724.12
2018-09-27T16:49:14.935Z,101722.09
2018-09-27T16:51:44.524Z,101725.39
2018-09-27T16:54:14.491Z,101725.72
2018-09-27T16:56:44.499Z,101716.13
2018-09-27T16:59:15.382Z,101717.20
2018-09-27T17:01:46.203Z,101713.55
2018-09-27T17:04:16.118Z,101706.56
2018-09-27T17:06:46.479Z,101711.34
2018-09-27T17:09:16.182Z,101698.50
2018-09-27T17:11:45.783Z,101699.69
2018-09-27T17:14:16.430Z,101692.66
2018-09-27T17:16:46.128Z,101690.75
2018-09-27T17:19:17.620Z,101687.36
2018-09-27T17:21:47.704Z,101688.16
2018-09-27T17:24:17.783Z,101687.50
2018-09-27T17:26:47.271Z,101689.25
2018-09-27T17:29:17.355Z,101687.16
2018-09-27T17:31:47.371Z,101687.77
2018-09-27T17:34:17.311Z,101686.59
2018-09-27T17:36:48.122Z,101690.80
2018-09-27T17:39:18.111Z,101690.13
2018-09-27T17:41:48.185Z,101682.45
2018-09-27T17:44:17.947Z,101684.02
2018-09-27T17:53:49.550Z,101690.76
2018-09-27T17:56:19.431Z,101691.25
2018-09-27T17:58:49.852Z,101684.75
2018-09-27T18:01:19.616Z,101679.66
2018-09-27T18:03:48.688Z,101685.09
2018-09-27T18:06:19.001Z,101675.38
2018-09-27T18:08:49.475Z,101672.77
2018-09-27T18:11:19.939Z,101673.45
2018-09-27T18:13:49.775Z,101671.60
2018-09-27T18:16:20.892Z,101670.84
2018-09-27T18:18:51.625Z,101665.48
2018-09-27T18:21:22.465Z,101660.64
2018-09-27T18:23:52.827Z,101668.02
2018-09-27T18:26:22.572Z,101666.45
2018-09-27T18:28:52.868Z,101662.49
2018-09-27T18:31:22.407Z,101664.91
2018-09-27T18:33:52.399Z,101665.78
2018-09-27T18:36:23.462Z,101659.20
2018-09-27T18:38:53.583Z,101651.12
2018-09-27T18:41:24.162Z,101649.19
2018-09-27T18:43:54.475Z,101650.55
2018-09-27T18:46:25.223Z,101647.44
2018-09-27T18:48:56.018Z,101648.42
2018-09-27T18:51:25.821Z,101638.41
2018-09-27T18:53:55.667Z,101642.19
2018-09-27T18:56:25.169Z,101635.99
2018-09-27T18:58:54.555Z,101636.56
2018-09-27T19:01:24.981Z,101638.52
2018-09-27T19:03:54.673Z,101631.53
2018-09-27T19:06:25.086Z,101625.78
2018-09-27T19:08:54.391Z,101624.52
2018-09-27T19:11:24.686Z,101625.28
2018-09-27T19:13:54.734Z,101621.80
2018-09-27T19:16:24.964Z,101619.84
2018-09-27T19:18:55.559Z,101627.23
2018-09-27T19:21:25.514Z,101622.47
2018-09-27T19:23:56.249Z,101623.05
2018-09-27T19:26:26.405Z,101618.48
2018-09-27T19:28:58.010Z,101616.92
2018-09-27T19:31:27.791Z,101617.30
2018-09-27T19:33:57.340Z,101614.16
2018-09-27T19:36:26.737Z,101611.12
2018-09-27T19:38:56.666Z,101604.73
2018-09-27T19:41:26.425Z,101606.76
2018-09-27T19:43:56.239Z,101603.66
2018-09-27T19:46:26.809Z,101593.47
2018-09-27T19:48:57.150Z,101595.48
2018-09-27T19:51:27.320Z,101593.06
2018-09-27T19:53:57.107Z,101583.64
2018-09-27T19:56:27.936Z,101582.77
2018-09-27T19:58:58.573Z,101585.17
2018-09-27T20:01:28.496Z,101577.59
2018-09-27T20:03:58.656Z,101582.73
2018-09-27T20:06:28.294Z,101585.11
2018-09-27T20:08:57.892Z,101576.89
2018-09-27T20:11:26.920Z,101575.72
2018-09-27T20:13:57.711Z,101580.41
2018-09-27T20:16:27.175Z,101574.02
2018-09-27T20:18:56.733Z,101572.34
2018-09-27T20:21:25.712Z,101574.08
2018-09-27T20:23:54.118Z,101568.38
2018-09-27T20:26:23.933Z,101563.98
2018-09-27T20:28:53.598Z,101561.24
2018-09-27T20:31:24.136Z,101556.12
2018-09-27T20:33:53.463Z,101554.70
2018-09-27T20:36:23.646Z,101551.31
2018-09-27T20:38:55.317Z,101547.38
2018-09-27T20:41:25.801Z,101546.69
2018-09-27T20:43:54.966Z,101546.47
2018-09-27T20:46:24.758Z,101545.22
2018-09-27T20:48:54.956Z,101537.31
2018-09-27T20:51:25.325Z,101535.95
2018-09-27T20:53:55.437Z,101530.38
2018-09-27T20:56:25.418Z,101530.81
2018-09-27T20:58:55.634Z,101528.11
2018-09-27T21:01:25.704Z,101520.56
2018-09-27T21:03:57.681Z,101524.73
2018-09-27T21:06:27.176Z,101525.63
2018-09-27T21:08:56.474Z,101518.80
2018-09-27T21:11:27.103Z,101520.28
2018-09-27T21:13:57.853Z,101517.72
2018-09-27T21:16:27.912Z,101517.72
2018-09-27T21:18:57.452Z,101511.11
2018-09-27T21:21:27.450Z,101510.47
2018-09-27T21:23:57.294Z,101508.83
2018-09-27T21:26:28.371Z,101504.00
2018-09-27T21:28:58.300Z,101503.17
2018-09-27T21:31:28.172Z,101505.03
2018-09-27T21:33:58.347Z,101496.69
2018-09-27T21:36:28.354Z,101494.20
2018-09-27T21:38:59.315Z,101497.01
2018-09-27T21:41:29.473Z,101497.04
2018-09-27T21:43:58.953Z,101489.08
2018-09-27T21:46:32.129Z,101489.95
2018-09-27T21:49:01.981Z,101485.17
2018-09-27T21:51:31.700Z,101482.02
2018-09-27T21:54:01.988Z,101470.06
2018-09-27T21:56:32.204Z,101470.55
2018-09-27T21:59:03.291Z,101460.30
2018-09-27T22:01:33.646Z,101461.09
2018-09-27T22:04:03.875Z,101461.09
2018-09-27T22:06:33.826Z,101460.55
2018-09-27T22:09:05.860Z,101456.27
2018-09-27T22:11:35.554Z,101455.84
2018-09-27T22:14:05.682Z,101451.17
2018-09-27T22:16:35.765Z,101448.47
2018-09-27T22:19:06.858Z,101438.60
2018-09-27T22:21:37.526Z,101439.73
2018-09-27T22:24:07.708Z,101435.92
2018-09-27T22:26:37.924Z,101434.70
2018-09-27T22:29:10.048Z,101438.28
2018-09-27T22:31:40.279Z,101433.45
2018-09-27T22:34:10.514Z,101430.58
2018-09-27T22:36:41.644Z,101426.52
2018-09-27T22:39:12.417Z,101421.59
2018-09-27T22:41:42.579Z,101418.17
2018-09-27T22:44:12.536Z,101414.11
2018-09-27T22:46:43.768Z,101416.91
2018-09-27T22:49:14.607Z,101409.28
2018-09-27T22:51:44.556Z,101410.47
2018-09-27T22:54:15.745Z,101413.27
2018-09-27T22:56:47.421Z,101403.82
2018-09-27T22:59:17.646Z,101401.37
2018-09-27T23:01:48.009Z,101401.18
2018-09-27T23:04:18.289Z,101405.97
2018-09-27T23:06:48.961Z,101395.88
2018-09-27T23:09:18.933Z,101395.95
2018-09-27T23:11:49.619Z,101390.53
2018-09-27T23:14:20.328Z,101381.28
2018-09-27T23:16:50.469Z,101381.41
2018-09-27T23:19:20.791Z,101377.14
2018-09-27T23:21:51.588Z,101373.57
2018-09-27T23:24:22.367Z,101372.76
2018-09-27T23:26:53.491Z,101375.56
2018-09-27T23:29:23.828Z,101369.70
2018-09-27T23:31:54.399Z,101371.05
2018-09-27T23:34:24.690Z,101373.23
2018-09-27T23:36:55.617Z,101370.91
2018-09-27T23:39:26.234Z,101374.97
2018-09-27T23:41:56.905Z,101378.22
2018-09-27T23:44:27.649Z,101373.44
2018-09-27T23:46:58.184Z,101379.03
2018-09-27T23:49:29.094Z,101379.23
2018-09-27T23:51:59.364Z,101384.43
2018-09-27T23:54:29.989Z,101388.48
2018-09-27T23:57:00.134Z,101384.19
2018-09-27T23:59:30.044Z,101383.62
